This is the latest recevied weather packets stored in our database for station/object OK1TOM-6. If no packets are shown the sender has not sent any weather packets the latest 10 day(s).
| Time | Temp. | Humidity | Pressure | Rain* | Wind** | Luminosity | Snow |
|---|---|---|---|---|---|---|---|
| 1777896366 | 20.56° C | 37% | 1016.5 hPa | 0 mm | - | - | - |
| 1777895763 | 21.11° C | 36% | 1016.5 hPa | 0 mm | - | - | - |
| 1777895159 | 21.11° C | 38% | 1016.7 hPa | 0 mm | - | - | - |
| 1777894556 | 21.67° C | 37% | 1016.7 hPa | 0 mm | - | - | - |
| 1777893953 | 21.11° C | 37% | 1016.7 hPa | 0 mm | - | - | - |
| 1777893349 | 21.11° C | 38% | 1016.7 hPa | 0 mm | - | - | - |
| 1777892746 | 20.56° C | 38% | 1016.8 hPa | 0 mm | - | - | - |
| 1777892142 | 20.56° C | 40% | 1016.8 hPa | 0 mm | - | - | - |
| 1777891539 | 20.56° C | 39% | 1017 hPa | 0 mm | - | - | - |
| 1777890935 | 21.11° C | 39% | 1017.1 hPa | 0 mm | - | - | - |
| 1777890332 | 20.56° C | 40% | 1017.2 hPa | 0 mm | - | - | - |
| 1777889728 | 20.56° C | 40% | 1017.3 hPa | 0 mm | - | - | - |
| 1777889125 | 20.56° C | 40% | 1017.3 hPa | 0 mm | - | - | - |
| 1777888522 | 20° C | 42% | 1017.5 hPa | 0 mm | - | - | - |
| 1777887918 | 20.56° C | 41% | 1017.6 hPa | 0 mm | - | - | - |
| 1777887315 | 18.89° C | 44% | 1017.6 hPa | 0 mm | - | - | - |
| 1777886772 | 20° C | 42% | 1017.5 hPa | 0 mm | - | - | - |
| 1777886169 | 18.89° C | 47% | 1017.5 hPa | 0 mm | - | - | - |
| 1777885565 | 18.89° C | 46% | 1017.7 hPa | 0 mm | - | - | - |
| 1777884962 | 18.89° C | 44% | 1017.6 hPa | 0 mm | - | - | - |
| 1777884358 | 19.44° C | 43% | 1017.7 hPa | 0 mm | - | - | - |
| 1777883755 | 18.89° C | 44% | 1017.7 hPa | 0 mm | - | - | - |
| 1777883151 | 18.33° C | 47% | 1017.7 hPa | 0 mm | - | - | - |
| 1777882548 | 17.78° C | 49% | 1017.8 hPa | 0 mm | - | - | - |
| 1777881944 | 17.22° C | 53% | 1017.8 hPa | 0 mm | - | - | - |
* Rain latest hour (hover to see other rain measurements)
** Current wind speed in m/s (hover to see current wind gust speed)